createdAt,value
2022-11-05T00:02:32.290Z,101200.75
2022-11-05T00:05:18.463Z,101201.75
2022-11-05T00:08:09.015Z,101203.97
2022-11-05T00:10:37.967Z,101202.78
2022-11-05T00:13:24.994Z,101196.31
2022-11-05T00:16:11.542Z,101194.47
2022-11-05T00:18:39.260Z,101199.91
2022-11-05T00:21:27.260Z,101198.03
2022-11-05T00:24:13.560Z,101201.06
2022-11-05T00:26:41.728Z,101196.81
2022-11-05T00:29:09.335Z,101198.84
2022-11-05T00:31:36.915Z,101194.56
2022-11-05T00:34:04.523Z,101202.03
2022-11-05T00:36:33.407Z,101195.75
2022-11-05T00:39:01.606Z,101195.91
2022-11-05T00:41:29.588Z,101200.50
2022-11-05T00:44:16.796Z,101201.50
2022-11-05T00:46:44.646Z,101205.38
2022-11-05T00:49:30.113Z,101213.53
2022-11-05T00:52:16.140Z,101206.41
2022-11-05T00:54:45.116Z,101215.72
2022-11-05T00:57:12.773Z,101210.13
2022-11-05T00:59:41.420Z,101218.28
2022-11-05T01:02:09.165Z,101218.97
2022-11-05T01:04:36.962Z,101214.56
2022-11-05T01:07:04.816Z,101218.28
2022-11-05T01:09:33.083Z,101214.56
2022-11-05T01:12:00.817Z,101213.69
2022-11-05T01:14:28.482Z,101218.75
2022-11-05T01:16:56.015Z,101219.06
2022-11-05T01:19:23.619Z,101219.91
2022-11-05T01:21:51.257Z,101221.59
2022-11-05T01:24:19.072Z,101217.88
2022-11-05T01:26:47.381Z,101219.06
2022-11-05T01:29:15.300Z,101221.78
2022-11-05T01:31:44.210Z,101222.63
2022-11-05T01:34:11.804Z,101223.81
2022-11-05T01:36:39.348Z,101224.78
2022-11-05T01:39:06.893Z,101225.09
2022-11-05T01:41:34.488Z,101225.09
2022-11-05T01:44:03.439Z,101220.00
2022-11-05T01:46:40.341Z,101226.28
2022-11-05T01:49:15.508Z,101227.13
2022-11-05T01:51:43.074Z,101230.88
2022-11-05T01:54:12.657Z,101227.44
2022-11-05T01:56:42.844Z,101228.28
2022-11-05T01:59:12.570Z,101228.47
2022-11-05T02:01:40.204Z,101231.19
2022-11-05T02:04:10.354Z,101240.03
2022-11-05T02:06:46.184Z,101243.91
2022-11-05T02:09:28.596Z,101238.47
2022-11-05T02:11:56.372Z,101240.03
2022-11-05T02:14:24.054Z,101239.84
2022-11-05T02:17:15.171Z,101251.25
2022-11-05T02:20:20.445Z,101259.31
2022-11-05T02:22:47.959Z,101258.00
2022-11-05T02:25:30.524Z,101264.94
2022-11-05T02:28:04.035Z,101260.88
2022-11-05T02:30:38.479Z,101263.13
2022-11-05T02:33:47.819Z,101265.03
2022-11-05T02:36:32.561Z,101260.59
2022-11-05T02:39:17.564Z,101266.31
2022-11-05T02:41:51.125Z,101265.78
2022-11-05T02:44:41.946Z,101264.28
2022-11-05T02:47:24.307Z,101249.41
2022-11-05T02:50:14.187Z,101251.09
2022-11-05T02:53:04.180Z,101244.84
2022-11-05T02:55:42.627Z,101248.38
2022-11-05T02:58:10.343Z,101245.66
2022-11-05T03:00:51.830Z,101251.81
2022-11-05T03:03:25.398Z,101249.81
2022-11-05T03:05:52.964Z,101246.78
2022-11-05T03:08:41.366Z,101241.34
2022-11-05T03:11:15.890Z,101237.75
2022-11-05T03:14:07.251Z,101240.09
2022-11-05T03:16:44.584Z,101246.00
2022-11-05T03:19:30.652Z,101254.00
2022-11-05T03:22:02.864Z,101257.41
2022-11-05T03:24:35.648Z,101254.69
2022-11-05T03:27:06.768Z,101244.97
2022-11-05T03:29:41.708Z,101246.00
2022-11-05T03:32:09.407Z,101246.84
2022-11-05T03:34:43.152Z,101249.41
2022-11-05T03:37:11.019Z,101248.56
2022-11-05T03:39:46.110Z,101252.44
2022-11-05T03:42:15.952Z,101255.84
2022-11-05T03:44:46.495Z,101253.13
2022-11-05T03:47:15.835Z,101254.16
2022-11-05T03:49:56.782Z,101260.88
2022-11-05T03:52:26.528Z,101262.34
2022-11-05T03:54:54.189Z,101266.84
2022-11-05T03:57:27.028Z,101266.75
2022-11-05T03:59:54.831Z,101272.25
2022-11-05T04:02:23.653Z,101274.72
2022-11-05T04:04:52.489Z,101275.16
2022-11-05T04:07:38.715Z,101272.91
2022-11-05T04:10:28.178Z,101285.78
2022-11-05T04:13:14.528Z,101288.81
2022-11-05T04:16:01.405Z,101291.28
2022-11-05T04:18:29.307Z,101295.16
2022-11-05T04:21:18.047Z,101288.16
2022-11-05T04:24:04.014Z,101296.88
2022-11-05T04:26:31.732Z,101304.47
2022-11-05T04:29:17.922Z,101307.34
2022-11-05T04:31:47.372Z,101305.91
2022-11-05T04:34:16.435Z,101313.34
2022-11-05T04:36:44.064Z,101311.25
2022-11-05T04:39:11.812Z,101308.53
2022-11-05T04:41:39.562Z,101315.53
2022-11-05T04:44:08.489Z,101316.69
2022-11-05T04:46:36.179Z,101313.63
2022-11-05T04:49:03.791Z,101308.09
2022-11-05T04:51:33.288Z,101304.06
2022-11-05T04:54:01.072Z,101304.34
2022-11-05T04:56:31.433Z,101306.13
2022-11-05T04:58:59.066Z,101307.41
2022-11-05T05:01:26.711Z,101302.97
2022-11-05T05:03:54.470Z,101312.94
2022-11-05T05:06:22.774Z,101316.06
2022-11-05T05:08:51.075Z,101315.28
2022-11-05T05:11:20.664Z,101303.09
2022-11-05T05:13:48.538Z,101305.75
2022-11-05T05:16:23.131Z,101310.72
2022-11-05T05:18:50.942Z,101310.09
2022-11-05T05:21:39.469Z,101314.44
2022-11-05T05:24:11.871Z,101326.25
2022-11-05T05:26:49.125Z,101330.66
2022-11-05T05:29:17.298Z,101337.13
2022-11-05T05:31:45.036Z,101337.81
2022-11-05T05:34:13.900Z,101344.03
2022-11-05T05:36:41.572Z,101347.81
2022-11-05T05:39:11.125Z,101357.66
2022-11-05T05:41:38.893Z,101361.78
2022-11-05T05:44:06.873Z,101362.47
2022-11-05T05:46:34.571Z,101370.31
2022-11-05T05:49:04.521Z,101378.31
2022-11-05T05:51:35.504Z,101387.16
2022-11-05T05:54:03.563Z,101388.56
2022-11-05T05:56:31.250Z,101387.66
2022-11-05T05:58:58.883Z,101395.16
2022-11-05T06:01:26.856Z,101398.69
2022-11-05T06:03:54.741Z,101395.88
2022-11-05T06:06:22.866Z,101405.56
2022-11-05T06:08:50.647Z,101405.47
2022-11-05T06:11:18.487Z,101404.69
2022-11-05T06:13:46.167Z,101414.09
2022-11-05T06:16:15.118Z,101407.47
2022-11-05T06:18:42.835Z,101419.38
2022-11-05T06:21:12.121Z,101427.50
2022-11-05T06:23:40.717Z,101428.13
2022-11-05T06:26:12.615Z,101426.81
2022-11-05T06:28:42.244Z,101426.28
2022-11-05T06:31:11.009Z,101426.75
2022-11-05T06:33:39.033Z,101427.00
2022-11-05T06:36:07.655Z,101421.00
2022-11-05T06:38:36.356Z,101424.72
2022-11-05T06:41:09.863Z,101427.13
2022-11-05T06:43:38.334Z,101429.84
2022-11-05T06:46:06.005Z,101424.16
2022-11-05T06:48:35.546Z,101432.47
2022-11-05T06:51:03.861Z,101436.59
2022-11-05T06:53:31.652Z,101436.38
2022-11-05T06:56:03.134Z,101437.50
2022-11-05T06:58:31.403Z,101436.66
2022-11-05T07:01:08.172Z,101438.16
2022-11-05T07:03:39.167Z,101440.63
2022-11-05T07:06:07.305Z,101451.16
2022-11-05T07:08:35.496Z,101450.22
2022-11-05T07:11:03.828Z,101442.69
2022-11-05T07:13:32.160Z,101454.22
2022-11-05T07:16:01.481Z,101454.75
2022-11-05T07:18:29.342Z,101452.59
2022-11-05T07:20:57.039Z,101462.69
2022-11-05T07:23:25.677Z,101479.97
2022-11-05T07:25:53.349Z,101477.47
2022-11-05T07:28:21.602Z,101484.38
2022-11-05T07:30:49.568Z,101492.50
2022-11-05T07:33:17.116Z,101488.00
2022-11-05T07:35:44.932Z,101479.78
2022-11-05T07:38:12.840Z,101479.53
2022-11-05T07:40:40.917Z,101489.34
2022-11-05T07:43:09.387Z,101491.91
2022-11-05T07:45:37.506Z,101498.06
2022-11-05T07:48:06.534Z,101508.47
2022-11-05T07:50:36.283Z,101509.28
2022-11-05T07:53:05.809Z,101512.03
2022-11-05T07:55:33.912Z,101517.81
2022-11-05T07:58:07.742Z,101520.19
2022-11-05T08:00:35.797Z,101514.69
2022-11-05T08:03:08.888Z,101516.91
2022-11-05T08:05:44.476Z,101516.97
2022-11-05T08:08:17.537Z,101516.44
2022-11-05T08:10:45.311Z,101517.50
2022-11-05T08:13:13.556Z,101522.09
2022-11-05T08:15:42.413Z,101516.31
2022-11-05T08:18:15.467Z,101518.69
2022-11-05T08:20:43.639Z,101513.75
2022-11-05T08:23:12.676Z,101519.00
2022-11-05T08:25:42.595Z,101516.84
2022-11-05T08:28:11.711Z,101522.00
2022-11-05T08:30:57.960Z,101526.44
2022-11-05T08:33:25.825Z,101527.84
2022-11-05T08:35:53.564Z,101542.78
2022-11-05T08:38:21.383Z,101542.41
2022-11-05T08:40:57.603Z,101540.72
2022-11-05T08:43:25.625Z,101543.09
2022-11-05T08:45:54.245Z,101550.72
2022-11-05T08:48:21.970Z,101544.03
2022-11-05T08:50:49.920Z,101538.69
2022-11-05T08:53:17.693Z,101530.03
2022-11-05T08:55:47.719Z,101538.19
2022-11-05T08:58:17.172Z,101536.78
2022-11-05T09:00:46.399Z,101533.00
2022-11-05T09:03:14.553Z,101538.13
2022-11-05T09:05:43.136Z,101533.53
2022-11-05T09:08:19.752Z,101546.75
2022-11-05T09:10:47.697Z,101535.88
2022-11-05T09:13:19.732Z,101546.16
2022-11-05T09:15:49.292Z,101542.69
2022-11-05T09:18:17.242Z,101550.72
2022-11-05T09:20:45.128Z,101554.84
2022-11-05T09:23:15.030Z,101547.84
2022-11-05T09:25:43.534Z,101544.88
2022-11-05T09:28:22.503Z,101557.38
2022-11-05T09:30:51.482Z,101566.88
2022-11-05T09:33:24.305Z,101558.38
2022-11-05T09:35:52.911Z,101562.66
2022-11-05T09:38:20.478Z,101566.09
2022-11-05T09:41:12.678Z,101579.91
2022-11-05T09:43:44.436Z,101573.59
2022-11-05T09:46:32.119Z,101575.97
2022-11-05T09:49:04.436Z,101582.25
2022-11-05T09:51:32.270Z,101588.63
2022-11-05T09:54:03.021Z,101592.91
2022-11-05T09:56:32.296Z,101590.84
2022-11-05T09:59:17.245Z,101602.59
2022-11-05T10:01:45.307Z,101597.31
2022-11-05T10:04:21.001Z,101598.00
2022-11-05T10:06:58.654Z,101590.16
2022-11-05T10:09:33.234Z,101580.75
2022-11-05T10:12:11.874Z,101594.06
2022-11-05T10:14:51.386Z,101586.91
2022-11-05T10:17:25.269Z,101586.59
2022-11-05T10:20:24.915Z,101595.63
2022-11-05T10:22:56.188Z,101595.09
2022-11-05T10:25:26.960Z,101592.19
2022-11-05T10:27:55.287Z,101592.03
2022-11-05T10:30:23.651Z,101593.91
2022-11-05T10:32:56.792Z,101601.41
2022-11-05T10:35:24.743Z,101608.50
2022-11-05T10:37:53.759Z,101604.66
2022-11-05T10:40:39.549Z,101605.34
2022-11-05T10:43:12.023Z,101598.88
2022-11-05T10:45:53.039Z,101598.31
2022-11-05T10:48:20.466Z,101593.56
2022-11-05T10:51:08.197Z,101601.50
2022-11-05T10:53:39.708Z,101606.38
2022-11-05T10:56:27.787Z,101598.34
2022-11-05T10:58:57.559Z,101585.38
2022-11-05T11:01:26.716Z,101589.13
2022-11-05T11:04:13.261Z,101595.09
2022-11-05T11:06:45.201Z,101591.53
2022-11-05T11:09:29.259Z,101592.03
2022-11-05T11:12:00.225Z,101589.81
2022-11-05T11:14:28.117Z,101581.03
2022-11-05T11:16:58.773Z,101580.66
2022-11-05T11:19:33.295Z,101584.94
2022-11-05T11:22:05.631Z,101584.19
2022-11-05T11:24:40.547Z,101587.88
2022-11-05T11:27:14.377Z,101597.50
2022-11-05T11:29:55.271Z,101602.06
2022-11-05T11:32:23.250Z,101598.13
2022-11-05T11:34:53.060Z,101601.75
2022-11-05T11:37:30.590Z,101601.69
2022-11-05T11:40:02.538Z,101612.47
2022-11-05T11:42:34.197Z,101611.28
2022-11-05T11:45:07.946Z,101615.56
2022-11-05T11:47:36.422Z,101616.28
2022-11-05T11:50:05.066Z,101610.47
2022-11-05T11:52:37.042Z,101607.56
2022-11-05T11:55:18.692Z,101609.66
2022-11-05T11:57:55.650Z,101617.22
2022-11-05T12:00:24.065Z,101617.06
2022-11-05T12:03:18.033Z,101619.69
2022-11-05T12:05:48.873Z,101624.72
2022-11-05T12:09:06.780Z,101619.56
2022-11-05T12:11:45.216Z,101623.22
2022-11-05T12:14:33.093Z,101618.94
2022-11-05T12:17:34.390Z,101616.84
2022-11-05T12:20:10.211Z,101620.22
2022-11-05T12:23:19.295Z,101619.50
2022-11-05T12:26:07.961Z,101620.53
2022-11-05T12:29:12.058Z,101626.50
2022-11-05T12:31:43.910Z,101623.16
2022-11-05T12:34:34.326Z,101612.94
2022-11-05T12:37:07.759Z,101620.72
2022-11-05T12:39:45.475Z,101613.25
2022-11-05T12:42:31.392Z,101629.84
2022-11-05T12:45:36.140Z,101636.19
2022-11-05T12:48:41.417Z,101635.09
2022-11-05T12:51:31.124Z,101636.91
2022-11-05T12:54:22.583Z,101647.81
2022-11-05T12:57:19.658Z,101642.88
2022-11-05T12:59:55.015Z,101646.59
2022-11-05T13:02:45.852Z,101654.28
2022-11-05T13:05:39.239Z,101665.19
2022-11-05T13:08:14.501Z,101662.72
2022-11-05T13:10:49.689Z,101659.72
2022-11-05T13:13:39.139Z,101672.28
2022-11-05T13:16:29.931Z,101674.16
2022-11-05T13:19:17.595Z,101680.69
2022-11-05T13:21:52.606Z,101690.91
2022-11-05T13:24:36.331Z,101690.28
2022-11-05T13:27:25.380Z,101688.13
2022-11-05T13:30:02.792Z,101700.31
2022-11-05T13:32:34.864Z,101688.56
2022-11-05T13:35:08.778Z,101695.44
2022-11-05T13:38:00.004Z,101684.81
2022-11-05T13:40:56.138Z,101690.09
2022-11-05T13:43:35.904Z,101691.31
2022-11-05T13:46:23.021Z,101691.94
2022-11-05T13:48:56.767Z,101692.56
2022-11-05T13:51:48.218Z,101695.50
2022-11-05T13:54:39.847Z,101691.34
2022-11-05T13:57:31.889Z,101702.34
2022-11-05T14:00:19.561Z,101703.63
2022-11-05T14:02:49.533Z,101705.34
2022-11-05T14:05:28.439Z,101704.63
2022-11-05T14:07:58.163Z,101708.59
2022-11-05T14:10:38.206Z,101712.13
2022-11-05T14:13:33.554Z,101711.56
2022-11-05T14:16:05.069Z,101726.66
2022-11-05T14:18:44.411Z,101726.50
2022-11-05T14:21:27.495Z,101726.16
2022-11-05T14:24:00.427Z,101733.28
2022-11-05T14:26:30.143Z,101738.78
2022-11-05T14:29:03.831Z,101738.06
2022-11-05T14:31:54.335Z,101747.19
2022-11-05T14:34:44.939Z,101742.47
2022-11-05T14:37:24.321Z,101747.19
2022-11-05T14:39:56.582Z,101745.03
2022-11-05T14:42:31.335Z,101755.53
2022-11-05T14:44:59.034Z,101752.59
2022-11-05T14:47:29.142Z,101757.22
2022-11-05T14:50:18.065Z,101773.75
2022-11-05T14:52:57.359Z,101774.66
2022-11-05T14:55:31.533Z,101775.91
2022-11-05T14:57:59.193Z,101778.25
2022-11-05T15:00:29.761Z,101786.38
2022-11-05T15:03:00.016Z,101793.66
2022-11-05T15:05:50.153Z,101797.09
2022-11-05T15:08:24.897Z,101796.88
2022-11-05T15:10:53.724Z,101793.94
2022-11-05T15:13:30.434Z,101800.06
2022-11-05T15:15:59.338Z,101794.63
2022-11-05T15:18:37.104Z,101796.31
2022-11-05T15:21:08.032Z,101804.44
2022-11-05T15:23:42.144Z,101809.59
2022-11-05T15:26:21.249Z,101811.44
2022-11-05T15:28:55.410Z,101819.56
2022-11-05T15:31:43.765Z,101824.59
2022-11-05T15:34:39.937Z,101823.75
2022-11-05T15:37:11.769Z,101828.06
2022-11-05T15:39:44.871Z,101841.72
2022-11-05T15:42:18.616Z,101838.34
2022-11-05T15:44:53.480Z,101842.19
2022-11-05T15:47:31.117Z,101851.44
2022-11-05T15:50:07.500Z,101847.38
2022-11-05T15:52:42.988Z,101847.28
2022-11-05T15:55:13.299Z,101853.19
2022-11-05T15:57:50.647Z,101852.69
2022-11-05T16:00:29.567Z,101860.09
2022-11-05T16:03:04.809Z,101862.03
2022-11-05T16:05:36.660Z,101862.66
2022-11-05T16:08:05.651Z,101854.66
2022-11-05T16:10:35.848Z,101859.47
2022-11-05T16:13:28.403Z,101861.09
2022-11-05T16:15:57.857Z,101866.41
2022-11-05T16:18:30.587Z,101875.75
2022-11-05T16:21:17.201Z,101880.44
2022-11-05T16:24:01.262Z,101881.38
2022-11-05T16:27:02.177Z,101887.91
2022-11-05T16:29:27.534Z,101893.59
2022-11-05T16:31:56.020Z,101896.53
2022-11-05T16:34:31.756Z,101902.19
2022-11-05T16:36:59.695Z,101913.31
2022-11-05T16:39:28.202Z,101909.84
2022-11-05T16:41:56.066Z,101922.03
2022-11-05T16:44:24.821Z,101926.63
2022-11-05T16:46:52.809Z,101922.91
2022-11-05T16:49:20.658Z,101926.63
2022-11-05T16:51:48.415Z,101926.63
2022-11-05T16:54:17.013Z,101935.72
2022-11-05T16:56:47.090Z,101937.69
2022-11-05T16:59:15.612Z,101938.31
2022-11-05T17:01:44.683Z,101942.88
2022-11-05T17:04:14.351Z,101946.53
2022-11-05T17:06:45.182Z,101960.50
2022-11-05T17:09:13.101Z,101959.00
2022-11-05T17:11:41.076Z,101956.16
2022-11-05T17:14:11.441Z,101959.09
2022-11-05T17:16:40.238Z,101967.34
2022-11-05T17:19:10.396Z,101973.53
2022-11-05T17:21:40.455Z,101969.22
2022-11-05T17:24:09.768Z,101966.72
2022-11-05T17:26:38.619Z,101969.44
2022-11-05T17:29:07.175Z,101976.34
2022-11-05T17:31:35.355Z,101976.34
2022-11-05T17:34:03.847Z,101980.38
2022-11-05T17:36:34.493Z,101982.59
2022-11-05T17:39:04.628Z,101981.75
2022-11-05T17:41:33.693Z,101983.09
2022-11-05T17:44:01.818Z,101987.50
2022-11-05T17:46:29.837Z,101980.75
2022-11-05T17:48:57.591Z,101980.75
2022-11-05T17:51:25.603Z,101983.97
2022-11-05T17:53:53.626Z,101979.66
2022-11-05T17:56:33.442Z,101984.31
2022-11-05T17:59:02.723Z,101987.13
2022-11-05T18:01:33.584Z,101985.16
2022-11-05T18:04:08.249Z,101986.63
2022-11-05T18:06:38.691Z,101986.63
2022-11-05T18:09:07.274Z,101985.03
2022-11-05T18:11:36.373Z,101993.59
2022-11-05T18:14:04.926Z,101994.69
2022-11-05T18:16:33.120Z,101997.91
2022-11-05T18:19:01.188Z,101996.16
2022-11-05T18:21:30.189Z,101993.88
2022-11-05T18:23:58.102Z,102002.06
2022-11-05T18:26:25.923Z,102000.38
2022-11-05T18:28:53.795Z,101999.75
2022-11-05T18:31:21.766Z,102005.88
2022-11-05T18:33:49.881Z,102007.47
2022-11-05T18:36:28.177Z,102003.78
2022-11-05T18:38:57.839Z,102003.50
2022-11-05T18:41:25.488Z,102005.38
2022-11-05T18:43:53.151Z,102009.56
2022-11-05T18:46:51.327Z,102008.44
2022-11-05T18:49:10.098Z,102009.31
2022-11-05T18:51:37.780Z,102020.94
2022-11-05T18:54:05.505Z,102020.81
2022-11-05T18:56:33.384Z,102021.69
2022-11-05T18:59:30.118Z,102021.22
2022-11-05T19:01:50.965Z,102025.91
2022-11-05T19:04:19.281Z,102033.25
2022-11-05T19:06:48.796Z,102039.75
2022-11-05T19:09:17.272Z,102038.13
2022-11-05T19:11:45.345Z,102041.44
2022-11-05T19:14:13.250Z,102039.50
2022-11-05T19:16:41.180Z,102038.97
2022-11-05T19:19:10.244Z,102051.63
2022-11-05T19:21:39.786Z,102049.97
2022-11-05T19:24:08.484Z,102052.66
2022-11-05T19:26:36.259Z,102055.22
2022-11-05T19:29:04.787Z,102048.97
2022-11-05T19:31:34.369Z,102062.31
2022-11-05T19:34:03.531Z,102063.06
2022-11-05T19:36:33.954Z,102063.19
2022-11-05T19:39:04.617Z,102069.22
2022-11-05T19:41:33.506Z,102076.47
2022-11-05T19:44:02.661Z,102074.50
2022-11-05T19:46:31.098Z,102077.22
2022-11-05T19:49:00.501Z,102074.88
2022-11-05T19:51:29.892Z,102074.97
2022-11-05T19:54:00.189Z,102073.88
2022-11-05T19:56:29.995Z,102068.22
2022-11-05T19:58:57.883Z,102068.06
2022-11-05T20:01:26.901Z,102076.63
2022-11-05T20:03:55.630Z,102076.53
2022-11-05T20:06:34.927Z,102078.75
2022-11-05T20:11:56.507Z,102082.56
2022-11-05T20:14:25.037Z,102084.44
2022-11-05T20:16:52.948Z,102091.53
2022-11-05T20:19:21.625Z,102091.53
2022-11-05T20:21:50.136Z,102092.91
2022-11-05T20:24:24.074Z,102091.94
2022-11-05T20:26:54.680Z,102086.78
2022-11-05T20:29:22.429Z,102092.91
2022-11-05T20:31:50.444Z,102090.66
2022-11-05T20:34:17.943Z,102093.09
2022-11-05T20:36:45.699Z,102090.41
2022-11-05T20:39:13.361Z,102089.63
2022-11-05T20:41:40.963Z,102086.69
2022-11-05T20:44:08.575Z,102093.50
2022-11-05T20:46:36.240Z,102094.13
2022-11-05T20:49:03.793Z,102099.78
2022-11-05T20:51:31.390Z,102107.97
2022-11-05T20:53:59.959Z,102108.84
2022-11-05T20:56:29.713Z,102108.53
2022-11-05T20:58:58.599Z,102109.53
2022-11-05T21:01:31.145Z,102112.13
2022-11-05T21:04:00.170Z,102112.75
2022-11-05T21:06:28.003Z,102114.72
2022-11-05T21:08:55.711Z,102112.97
2022-11-05T21:11:50.319Z,102118.03
2022-11-05T21:14:18.138Z,102114.25
2022-11-05T21:16:45.738Z,102115.13
2022-11-05T21:19:15.272Z,102112.53
2022-11-05T21:21:42.775Z,102116.56
2022-11-05T21:24:10.348Z,102115.56
2022-11-05T21:26:37.892Z,102120.25
2022-11-05T21:29:05.768Z,102113.94
2022-11-05T21:31:38.572Z,102107.81
2022-11-05T21:34:06.525Z,102120.88
2022-11-05T21:36:34.281Z,102114.38
2022-11-05T21:39:02.030Z,102121.41
2022-11-05T21:41:31.146Z,102116.66
2022-11-05T21:43:58.868Z,102126.63
2022-11-05T21:46:26.551Z,102121.09
2022-11-05T21:48:54.115Z,102121.75
2022-11-05T21:51:40.558Z,102123.56
2022-11-05T21:54:28.703Z,102115.91
2022-11-05T21:57:15.202Z,102117.22
2022-11-05T21:59:49.267Z,102117.56
2022-11-05T22:02:20.868Z,102120.91
2022-11-05T22:04:53.338Z,102117.22
2022-11-05T22:07:23.188Z,102108.06
2022-11-05T22:09:50.754Z,102116.59
2022-11-05T22:12:20.375Z,102119.53
2022-11-05T22:14:48.628Z,102123.19
2022-11-05T22:17:16.684Z,102125.03
2022-11-05T22:19:45.035Z,102121.91
2022-11-05T22:22:12.660Z,102125.38
2022-11-05T22:24:40.366Z,102123.66
2022-11-05T22:27:12.530Z,102126.56
2022-11-05T22:29:40.122Z,102133.38
2022-11-05T22:32:07.820Z,102137.59
2022-11-05T22:34:35.815Z,102136.63
2022-11-05T22:37:03.630Z,102136.91
2022-11-05T22:39:31.610Z,102139.56
2022-11-05T22:42:02.965Z,102141.59
2022-11-05T22:44:33.271Z,102140.72
2022-11-05T22:47:00.945Z,102147.75
2022-11-05T22:49:28.978Z,102161.72
2022-11-05T22:51:56.756Z,102155.31
2022-11-05T22:54:24.327Z,102156.53
2022-11-05T22:56:53.877Z,102156.75
2022-11-05T22:59:21.628Z,102168.97
2022-11-05T23:01:49.548Z,102165.19
2022-11-05T23:04:17.924Z,102162.59
2022-11-05T23:07:04.405Z,102168.97
2022-11-05T23:09:51.829Z,102172.75
2022-11-05T23:12:21.985Z,102179.63
2022-11-05T23:14:49.830Z,102184.41
2022-11-05T23:17:36.314Z,102184.50
2022-11-05T23:20:29.930Z,102182.25
2022-11-05T23:23:16.077Z,102183.53
2022-11-05T23:25:43.644Z,102184.94
2022-11-05T23:28:11.593Z,102189.91
2022-11-05T23:31:01.627Z,102189.91
2022-11-05T23:33:29.471Z,102193.69
2022-11-05T23:36:15.506Z,102198.88
2022-11-05T23:38:43.082Z,102192.41
2022-11-05T23:41:29.043Z,102194.56
2022-11-05T23:44:15.166Z,102196.91
2022-11-05T23:47:01.373Z,102199.31
2022-11-05T23:49:29.075Z,102201.78
2022-11-05T23:51:56.669Z,102196.72
2022-11-05T23:54:25.278Z,102196.28
2022-11-05T23:56:53.675Z,102188.19
2022-11-05T23:59:21.283Z,102200.38
